sensor_id;sensor_type;location;lat;lon;timestamp;pressure;altitude;pressure_sealevel;temperature;humidity
5966;BME280;3009;43.224;27.976;2023-03-26T00:01:37;99548.81;;;9.14;100.00
5966;BME280;3009;43.224;27.976;2023-03-26T00:04:06;99569.75;;;9.03;100.00
5966;BME280;3009;43.224;27.976;2023-03-26T00:06:36;99565.16;;;8.34;100.00
5966;BME280;3009;43.224;27.976;2023-03-26T00:09:07;99554.00;;;8.23;100.00
5966;BME280;3009;43.224;27.976;2023-03-26T00:11:35;99559.16;;;8.20;100.00
5966;BME280;3009;43.224;27.976;2023-03-26T00:14:04;99549.53;;;8.01;100.00
5966;BME280;3009;43.224;27.976;2023-03-26T00:16:33;99551.03;;;7.76;100.00
5966;BME280;3009;43.224;27.976;2023-03-26T00:19:02;99564.53;;;7.71;100.00
5966;BME280;3009;43.224;27.976;2023-03-26T00:21:32;99559.25;;;7.88;100.00
5966;BME280;3009;43.224;27.976;2023-03-26T00:24:02;99559.47;;;8.09;100.00
5966;BME280;3009;43.224;27.976;2023-03-26T00:26:31;99571.91;;;8.31;100.00
5966;BME280;3009;43.224;27.976;2023-03-26T00:29:00;99574.16;;;8.47;100.00
5966;BME280;3009;43.224;27.976;2023-03-26T00:31:30;99575.34;;;8.23;100.00
5966;BME280;3009;43.224;27.976;2023-03-26T00:33:58;99584.47;;;7.73;100.00
5966;BME280;3009;43.224;27.976;2023-03-26T00:36:31;99590.44;;;7.70;100.00
5966;BME280;3009;43.224;27.976;2023-03-26T00:39:02;99590.25;;;7.67;100.00
5966;BME280;3009;43.224;27.976;2023-03-26T00:41:32;99591.81;;;7.68;100.00
5966;BME280;3009;43.224;27.976;2023-03-26T00:44:03;99579.91;;;7.74;100.00
5966;BME280;3009;43.224;27.976;2023-03-26T00:46:31;99592.84;;;7.80;100.00
5966;BME280;3009;43.224;27.976;2023-03-26T00:49:00;99587.50;;;7.89;100.00
5966;BME280;3009;43.224;27.976;2023-03-26T00:51:31;99590.97;;;7.98;100.00
5966;BME280;3009;43.224;27.976;2023-03-26T00:54:00;99585.41;;;8.18;100.00
5966;BME280;3009;43.224;27.976;2023-03-26T00:56:29;99591.88;;;8.34;100.00
5966;BME280;3009;43.224;27.976;2023-03-26T00:58:57;99589.66;;;8.36;100.00
5966;BME280;3009;43.224;27.976;2023-03-26T01:01:27;99586.53;;;8.43;100.00
5966;BME280;3009;43.224;27.976;2023-03-26T01:03:57;99582.97;;;8.56;100.00
5966;BME280;3009;43.224;27.976;2023-03-26T01:06:47;99589.56;;;8.67;100.00
5966;BME280;3009;43.224;27.976;2023-03-26T01:09:18;99579.22;;;8.75;100.00
5966;BME280;3009;43.224;27.976;2023-03-26T01:11:48;99581.72;;;8.89;100.00
5966;BME280;3009;43.224;27.976;2023-03-26T01:14:19;99582.34;;;8.94;100.00
5966;BME280;3009;43.224;27.976;2023-03-26T01:16:50;99579.66;;;8.94;100.00
5966;BME280;3009;43.224;27.976;2023-03-26T01:19:24;99572.59;;;8.98;100.00
5966;BME280;3009;43.224;27.976;2023-03-26T01:21:58;99557.94;;;9.04;100.00
5966;BME280;3009;43.224;27.976;2023-03-26T01:24:28;99557.78;;;9.01;100.00
5966;BME280;3009;43.224;27.976;2023-03-26T01:27:19;99558.09;;;8.99;100.00
5966;BME280;3009;43.224;27.976;2023-03-26T01:29:52;99561.72;;;9.03;100.00
5966;BME280;3009;43.224;27.976;2023-03-26T01:32:36;99559.34;;;9.19;100.00
5966;BME280;3009;43.224;27.976;2023-03-26T01:35:16;99559.66;;;9.18;100.00
5966;BME280;3009;43.224;27.976;2023-03-26T01:37:56;99563.56;;;9.20;100.00
5966;BME280;3009;43.224;27.976;2023-03-26T01:40:41;99563.09;;;9.27;100.00
5966;BME280;3009;43.224;27.976;2023-03-26T01:43:20;99569.53;;;9.26;100.00
5966;BME280;3009;43.224;27.976;2023-03-26T01:45:50;99557.00;;;9.18;100.00
5966;BME280;3009;43.224;27.976;2023-03-26T01:48:19;99555.06;;;9.27;100.00
5966;BME280;3009;43.224;27.976;2023-03-26T01:50:48;99559.59;;;9.35;100.00
5966;BME280;3009;43.224;27.976;2023-03-26T01:53:19;99555.97;;;9.40;100.00
5966;BME280;3009;43.224;27.976;2023-03-26T01:55:55;99562.56;;;9.43;100.00
5966;BME280;3009;43.224;27.976;2023-03-26T01:58:34;99559.25;;;9.46;100.00
5966;BME280;3009;43.224;27.976;2023-03-26T02:01:11;99557.34;;;9.46;100.00
5966;BME280;3009;43.224;27.976;2023-03-26T02:03:48;99555.84;;;9.36;100.00
5966;BME280;3009;43.224;27.976;2023-03-26T02:06:25;99564.50;;;9.33;100.00
5966;BME280;3009;43.224;27.976;2023-03-26T02:09:02;99551.44;;;9.32;100.00
5966;BME280;3009;43.224;27.976;2023-03-26T02:11:34;99554.59;;;9.25;100.00
5966;BME280;3009;43.224;27.976;2023-03-26T02:14:05;99542.69;;;9.14;100.00
5966;BME280;3009;43.224;27.976;2023-03-26T02:16:34;99553.19;;;9.10;100.00
5966;BME280;3009;43.224;27.976;2023-03-26T02:19:03;99550.06;;;9.08;100.00
5966;BME280;3009;43.224;27.976;2023-03-26T02:21:31;99552.25;;;9.15;100.00
5966;BME280;3009;43.224;27.976;2023-03-26T02:24:00;99547.84;;;9.19;100.00
5966;BME280;3009;43.224;27.976;2023-03-26T02:26:31;99551.75;;;9.30;100.00
5966;BME280;3009;43.224;27.976;2023-03-26T02:29:02;99553.13;;;9.45;100.00
5966;BME280;3009;43.224;27.976;2023-03-26T02:31:30;99542.09;;;9.47;100.00
5966;BME280;3009;43.224;27.976;2023-03-26T02:33:58;99546.34;;;9.48;100.00
5966;BME280;3009;43.224;27.976;2023-03-26T02:36:27;99552.34;;;9.45;100.00
5966;BME280;3009;43.224;27.976;2023-03-26T02:38:56;99548.63;;;9.67;100.00
5966;BME280;3009;43.224;27.976;2023-03-26T02:41:26;99546.97;;;9.83;100.00
5966;BME280;3009;43.224;27.976;2023-03-26T02:43:54;99544.94;;;9.80;100.00
5966;BME280;3009;43.224;27.976;2023-03-26T02:46:24;99539.44;;;9.76;100.00
5966;BME280;3009;43.224;27.976;2023-03-26T02:48:52;99539.63;;;9.71;100.00
5966;BME280;3009;43.224;27.976;2023-03-26T02:51:21;99543.41;;;9.70;100.00
5966;BME280;3009;43.224;27.976;2023-03-26T02:53:49;99553.34;;;9.70;100.00
5966;BME280;3009;43.224;27.976;2023-03-26T02:56:19;99556.47;;;9.72;100.00
5966;BME280;3009;43.224;27.976;2023-03-26T02:58:47;99550.47;;;9.75;100.00
5966;BME280;3009;43.224;27.976;2023-03-26T03:01:16;99556.63;;;9.75;100.00
5966;BME280;3009;43.224;27.976;2023-03-26T03:03:46;99552.66;;;9.82;100.00
5966;BME280;3009;43.224;27.976;2023-03-26T03:06:15;99549.78;;;9.87;100.00
5966;BME280;3009;43.224;27.976;2023-03-26T03:08:45;99555.16;;;9.87;100.00
5966;BME280;3009;43.224;27.976;2023-03-26T03:11:15;99553.00;;;9.80;100.00
5966;BME280;3009;43.224;27.976;2023-03-26T03:13:44;99549.66;;;9.83;100.00
5966;BME280;3009;43.224;27.976;2023-03-26T03:16:12;99556.06;;;9.91;100.00
5966;BME280;3009;43.224;27.976;2023-03-26T03:18:41;99556.69;;;9.97;100.00
5966;BME280;3009;43.224;27.976;2023-03-26T03:21:11;99557.50;;;9.88;100.00
5966;BME280;3009;43.224;27.976;2023-03-26T03:23:39;99563.22;;;9.78;100.00
5966;BME280;3009;43.224;27.976;2023-03-26T03:26:12;99565.31;;;9.72;100.00
5966;BME280;3009;43.224;27.976;2023-03-26T03:28:41;99564.59;;;9.84;100.00
5966;BME280;3009;43.224;27.976;2023-03-26T03:31:10;99580.19;;;9.91;100.00
5966;BME280;3009;43.224;27.976;2023-03-26T03:33:39;99571.31;;;9.99;100.00
5966;BME280;3009;43.224;27.976;2023-03-26T03:36:10;99574.13;;;10.03;100.00
5966;BME280;3009;43.224;27.976;2023-03-26T03:38:48;99574.19;;;10.24;100.00
5966;BME280;3009;43.224;27.976;2023-03-26T03:41:17;99567.34;;;10.35;100.00
5966;BME280;3009;43.224;27.976;2023-03-26T03:43:45;99569.63;;;10.45;100.00
5966;BME280;3009;43.224;27.976;2023-03-26T03:46:14;99577.88;;;10.61;100.00
5966;BME280;3009;43.224;27.976;2023-03-26T03:48:42;99588.72;;;10.65;100.00
5966;BME280;3009;43.224;27.976;2023-03-26T03:51:17;99597.22;;;10.67;100.00
5966;BME280;3009;43.224;27.976;2023-03-26T03:53:45;99586.16;;;10.69;100.00
5966;BME280;3009;43.224;27.976;2023-03-26T03:56:15;99583.16;;;10.70;100.00
5966;BME280;3009;43.224;27.976;2023-03-26T03:58:45;99582.81;;;10.72;100.00
5966;BME280;3009;43.224;27.976;2023-03-26T04:01:13;99604.81;;;10.65;100.00
5966;BME280;3009;43.224;27.976;2023-03-26T04:03:42;99595.28;;;10.55;100.00
5966;BME280;3009;43.224;27.976;2023-03-26T04:06:12;99599.00;;;10.63;100.00
5966;BME280;3009;43.224;27.976;2023-03-26T04:08:46;99600.03;;;10.50;100.00
5966;BME280;3009;43.224;27.976;2023-03-26T04:11:14;99598.19;;;10.41;100.00
5966;BME280;3009;43.224;27.976;2023-03-26T04:13:43;99603.63;;;10.24;100.00
5966;BME280;3009;43.224;27.976;2023-03-26T04:16:11;99602.72;;;10.20;100.00
5966;BME280;3009;43.224;27.976;2023-03-26T04:18:40;99617.41;;;10.14;100.00
5966;BME280;3009;43.224;27.976;2023-03-26T04:21:08;99613.56;;;10.23;100.00
5966;BME280;3009;43.224;27.976;2023-03-26T04:23:38;99611.34;;;10.34;100.00
5966;BME280;3009;43.224;27.976;2023-03-26T04:26:14;99609.06;;;10.45;100.00
5966;BME280;3009;43.224;27.976;2023-03-26T04:28:47;99611.94;;;10.61;100.00
5966;BME280;3009;43.224;27.976;2023-03-26T04:31:17;99602.59;;;10.67;100.00
5966;BME280;3009;43.224;27.976;2023-03-26T04:33:51;99598.28;;;10.54;100.00
5966;BME280;3009;43.224;27.976;2023-03-26T04:36:24;99609.13;;;10.57;100.00
5966;BME280;3009;43.224;27.976;2023-03-26T04:38:55;99612.31;;;10.51;100.00
5966;BME280;3009;43.224;27.976;2023-03-26T04:41:29;99625.38;;;10.52;100.00
5966;BME280;3009;43.224;27.976;2023-03-26T04:43:58;99616.41;;;10.57;100.00
5966;BME280;3009;43.224;27.976;2023-03-26T04:46:27;99619.56;;;10.50;100.00
5966;BME280;3009;43.224;27.976;2023-03-26T04:48:59;99626.03;;;10.49;100.00
5966;BME280;3009;43.224;27.976;2023-03-26T04:51:34;99624.44;;;10.57;100.00
5966;BME280;3009;43.224;27.976;2023-03-26T04:54:05;99628.22;;;10.56;100.00
5966;BME280;3009;43.224;27.976;2023-03-26T04:56:39;99624.56;;;10.60;100.00
5966;BME280;3009;43.224;27.976;2023-03-26T04:59:12;99622.59;;;10.70;100.00
5966;BME280;3009;43.224;27.976;2023-03-26T05:01:42;99631.41;;;10.70;100.00
5966;BME280;3009;43.224;27.976;2023-03-26T05:04:11;99629.22;;;10.72;100.00
5966;BME280;3009;43.224;27.976;2023-03-26T05:06:44;99627.75;;;10.75;100.00
5966;BME280;3009;43.224;27.976;2023-03-26T05:09:12;99627.31;;;10.73;100.00
5966;BME280;3009;43.224;27.976;2023-03-26T05:11:42;99636.13;;;10.73;100.00
5966;BME280;3009;43.224;27.976;2023-03-26T05:14:11;99644.44;;;10.80;100.00
5966;BME280;3009;43.224;27.976;2023-03-26T05:16:39;99645.38;;;10.85;100.00
5966;BME280;3009;43.224;27.976;2023-03-26T05:19:08;99641.25;;;10.87;100.00
5966;BME280;3009;43.224;27.976;2023-03-26T05:21:36;99654.84;;;10.82;100.00
5966;BME280;3009;43.224;27.976;2023-03-26T05:24:05;99648.31;;;10.92;100.00
5966;BME280;3009;43.224;27.976;2023-03-26T05:26:34;99642.72;;;10.97;100.00
5966;BME280;3009;43.224;27.976;2023-03-26T05:29:04;99647.00;;;10.98;100.00
5966;BME280;3009;43.224;27.976;2023-03-26T05:31:32;99645.56;;;11.01;100.00
5966;BME280;3009;43.224;27.976;2023-03-26T05:34:01;99648.59;;;11.32;100.00
5966;BME280;3009;43.224;27.976;2023-03-26T05:36:29;99644.06;;;11.58;100.00
5966;BME280;3009;43.224;27.976;2023-03-26T05:38:57;99644.44;;;11.35;100.00
5966;BME280;3009;43.224;27.976;2023-03-26T05:41:26;99628.84;;;11.49;100.00
5966;BME280;3009;43.224;27.976;2023-03-26T05:43:54;99631.78;;;11.69;100.00
5966;BME280;3009;43.224;27.976;2023-03-26T05:46:24;99636.50;;;11.72;100.00
5966;BME280;3009;43.224;27.976;2023-03-26T05:48:53;99638.59;;;11.66;100.00
5966;BME280;3009;43.224;27.976;2023-03-26T05:51:21;99635.50;;;11.89;100.00
5966;BME280;3009;43.224;27.976;2023-03-26T05:53:50;99636.16;;;11.86;100.00
5966;BME280;3009;43.224;27.976;2023-03-26T05:56:18;99645.91;;;11.91;100.00
5966;BME280;3009;43.224;27.976;2023-03-26T05:58:47;99653.44;;;12.47;100.00
5966;BME280;3009;43.224;27.976;2023-03-26T06:01:17;99662.38;;;12.63;100.00
5966;BME280;3009;43.224;27.976;2023-03-26T06:03:48;99661.66;;;12.91;100.00
5966;BME280;3009;43.224;27.976;2023-03-26T06:06:19;99653.97;;;13.05;100.00
5966;BME280;3009;43.224;27.976;2023-03-26T06:08:49;99654.78;;;12.65;100.00
5966;BME280;3009;43.224;27.976;2023-03-26T06:11:29;99660.06;;;12.49;100.00
5966;BME280;3009;43.224;27.976;2023-03-26T06:13:58;99654.13;;;12.31;100.00
5966;BME280;3009;43.224;27.976;2023-03-26T06:16:26;99657.16;;;12.17;100.00
5966;BME280;3009;43.224;27.976;2023-03-26T06:18:56;99648.88;;;12.10;100.00
5966;BME280;3009;43.224;27.976;2023-03-26T06:21:25;99640.53;;;11.91;100.00
5966;BME280;3009;43.224;27.976;2023-03-26T06:23:54;99653.00;;;11.95;100.00
5966;BME280;3009;43.224;27.976;2023-03-26T06:26:23;99654.75;;;11.91;100.00
5966;BME280;3009;43.224;27.976;2023-03-26T06:28:51;99659.84;;;12.05;100.00
5966;BME280;3009;43.224;27.976;2023-03-26T06:31:19;99651.22;;;12.24;100.00
5966;BME280;3009;43.224;27.976;2023-03-26T06:33:48;99654.25;;;12.47;100.00
5966;BME280;3009;43.224;27.976;2023-03-26T06:36:18;99652.09;;;12.93;100.00
5966;BME280;3009;43.224;27.976;2023-03-26T06:38:46;99647.00;;;13.17;100.00
5966;BME280;3009;43.224;27.976;2023-03-26T06:41:15;99641.59;;;13.17;100.00
5966;BME280;3009;43.224;27.976;2023-03-26T06:43:43;99656.34;;;12.54;100.00
5966;BME280;3009;43.224;27.976;2023-03-26T06:46:12;99663.84;;;12.48;100.00
5966;BME280;3009;43.224;27.976;2023-03-26T06:48:40;99666.78;;;12.31;100.00
5966;BME280;3009;43.224;27.976;2023-03-26T06:51:09;99680.34;;;12.22;100.00
5966;BME280;3009;43.224;27.976;2023-03-26T06:53:39;99683.34;;;12.20;100.00
5966;BME280;3009;43.224;27.976;2023-03-26T06:56:08;99670.94;;;12.16;100.00
5966;BME280;3009;43.224;27.976;2023-03-26T06:58:36;99672.28;;;12.22;100.00
5966;BME280;3009;43.224;27.976;2023-03-26T07:01:05;99669.91;;;12.45;100.00
5966;BME280;3009;43.224;27.976;2023-03-26T07:03:34;99669.44;;;12.68;99.30
5966;BME280;3009;43.224;27.976;2023-03-26T07:06:02;99671.22;;;12.76;97.27
5966;BME280;3009;43.224;27.976;2023-03-26T07:08:31;99689.47;;;12.83;96.54
5966;BME280;3009;43.224;27.976;2023-03-26T07:11:00;99672.78;;;12.65;97.54
5966;BME280;3009;43.224;27.976;2023-03-26T07:13:28;99683.56;;;12.52;98.32
5966;BME280;3009;43.224;27.976;2023-03-26T07:15:57;99683.91;;;12.51;97.22
5966;BME280;3009;43.224;27.976;2023-03-26T07:18:25;99691.97;;;12.51;97.61
5966;BME280;3009;43.224;27.976;2023-03-26T07:20:54;99695.78;;;12.62;96.31
5966;BME280;3009;43.224;27.976;2023-03-26T07:23:24;99672.59;;;12.70;96.24
5966;BME280;3009;43.224;27.976;2023-03-26T07:25:53;99679.03;;;12.81;94.79
5966;BME280;3009;43.224;27.976;2023-03-26T07:28:28;99684.06;;;12.95;93.38
5966;BME280;3009;43.224;27.976;2023-03-26T07:31:09;99679.59;;;13.27;92.56
5966;BME280;3009;43.224;27.976;2023-03-26T07:33:47;99677.06;;;13.47;90.41
5966;BME280;3009;43.224;27.976;2023-03-26T07:36:25;99682.34;;;13.43;89.02
5966;BME280;3009;43.224;27.976;2023-03-26T07:39:08;99672.13;;;13.65;87.05
5966;BME280;3009;43.224;27.976;2023-03-26T07:41:42;99664.03;;;13.49;88.68
5966;BME280;3009;43.224;27.976;2023-03-26T07:44:45;99659.28;;;13.74;86.86
5966;BME280;3009;43.224;27.976;2023-03-26T07:47:23;99663.53;;;13.91;86.63
5966;BME280;3009;43.224;27.976;2023-03-26T07:49:55;99658.75;;;14.16;84.60
5966;BME280;3009;43.224;27.976;2023-03-26T07:52:24;99660.16;;;14.10;83.16
5966;BME280;3009;43.224;27.976;2023-03-26T07:54:53;99653.38;;;13.85;82.55
5966;BME280;3009;43.224;27.976;2023-03-26T07:57:33;99648.41;;;13.87;82.52
5966;BME280;3009;43.224;27.976;2023-03-26T08:00:14;99645.66;;;13.83;82.01
5966;BME280;3009;43.224;27.976;2023-03-26T08:03:08;99659.81;;;13.80;81.67
5966;BME280;3009;43.224;27.976;2023-03-26T08:05:42;99657.72;;;13.73;83.24
5966;BME280;3009;43.224;27.976;2023-03-26T08:08:18;99648.50;;;13.74;81.15
5966;BME280;3009;43.224;27.976;2023-03-26T08:11:02;99656.84;;;13.85;81.59
5966;BME280;3009;43.224;27.976;2023-03-26T08:13:51;99657.13;;;14.12;78.74
5966;BME280;3009;43.224;27.976;2023-03-26T08:16:27;99657.25;;;14.19;79.08
5966;BME280;3009;43.224;27.976;2023-03-26T08:19:02;99659.19;;;14.34;79.56
5966;BME280;3009;43.224;27.976;2023-03-26T08:21:37;99661.59;;;14.40;77.29
5966;BME280;3009;43.224;27.976;2023-03-26T08:24:13;99662.47;;;14.44;76.60
5966;BME280;3009;43.224;27.976;2023-03-26T08:26:51;99662.72;;;14.39;77.60
5966;BME280;3009;43.224;27.976;2023-03-26T08:29:30;99656.53;;;14.54;78.51
5966;BME280;3009;43.224;27.976;2023-03-26T08:32:03;99651.41;;;14.84;75.48
5966;BME280;3009;43.224;27.976;2023-03-26T08:34:31;99656.88;;;14.88;74.18
5966;BME280;3009;43.224;27.976;2023-03-26T08:37:00;99644.25;;;14.92;75.65
5966;BME280;3009;43.224;27.976;2023-03-26T08:39:28;99650.41;;;14.93;75.14
5966;BME280;3009;43.224;27.976;2023-03-26T08:42:45;99641.13;;;14.90;73.57
5966;BME280;3009;43.224;27.976;2023-03-26T08:46:06;99645.72;;;14.89;75.56
5966;BME280;3009;43.224;27.976;2023-03-26T08:49:10;99663.13;;;15.31;72.31
5966;BME280;3009;43.224;27.976;2023-03-26T08:55:09;99662.78;;;15.56;68.87
5966;BME280;3009;43.224;27.976;2023-03-26T08:58:25;99651.44;;;15.70;67.35
5966;BME280;3009;43.224;27.976;2023-03-26T09:01:26;99669.16;;;15.87;65.52
5966;BME280;3009;43.224;27.976;2023-03-26T09:04:19;99664.84;;;15.82;64.09
5966;BME280;3009;43.224;27.976;2023-03-26T09:10:18;99676.03;;;15.61;63.67
5966;BME280;3009;43.224;27.976;2023-03-26T09:13:13;99687.38;;;15.70;62.99
5966;BME280;3009;43.224;27.976;2023-03-26T09:16:15;99687.41;;;15.51;62.86
5966;BME280;3009;43.224;27.976;2023-03-26T09:22:49;99703.91;;;15.46;63.44
5966;BME280;3009;43.224;27.976;2023-03-26T09:25:43;99696.22;;;15.67;62.67
5966;BME280;3009;43.224;27.976;2023-03-26T09:28:54;99700.19;;;15.73;61.06
5966;BME280;3009;43.224;27.976;2023-03-26T09:31:46;99702.03;;;15.69;60.78
5966;BME280;3009;43.224;27.976;2023-03-26T09:34:29;99696.75;;;15.76;59.51
5966;BME280;3009;43.224;27.976;2023-03-26T09:37:24;99696.66;;;15.92;59.73
5966;BME280;3009;43.224;27.976;2023-03-26T09:40:06;99694.25;;;15.87;59.29
5966;BME280;3009;43.224;27.976;2023-03-26T09:42:42;99694.56;;;15.82;60.78
5966;BME280;3009;43.224;27.976;2023-03-26T09:45:50;99690.78;;;15.87;62.47
5966;BME280;3009;43.224;27.976;2023-03-26T09:51:43;99706.81;;;15.99;63.18
5966;BME280;3009;43.224;27.976;2023-03-26T09:54:41;99691.63;;;16.14;62.23
5966;BME280;3009;43.224;27.976;2023-03-26T09:57:25;99706.09;;;16.52;62.65
5966;BME280;3009;43.224;27.976;2023-03-26T10:00:13;99698.19;;;16.40;60.36
5966;BME280;3009;43.224;27.976;2023-03-26T10:03:05;99688.03;;;16.33;61.69
5966;BME280;3009;43.224;27.976;2023-03-26T10:05:46;99693.13;;;16.11;59.65
5966;BME280;3009;43.224;27.976;2023-03-26T10:08:27;99705.47;;;15.89;61.11
5966;BME280;3009;43.224;27.976;2023-03-26T10:11:02;99701.69;;;15.94;61.67
5966;BME280;3009;43.224;27.976;2023-03-26T10:13:46;99711.19;;;16.07;61.47
5966;BME280;3009;43.224;27.976;2023-03-26T10:16:24;99706.47;;;16.01;59.81
5966;BME280;3009;43.224;27.976;2023-03-26T10:19:11;99723.94;;;16.07;59.73
5966;BME280;3009;43.224;27.976;2023-03-26T10:21:55;99723.47;;;16.01;59.47
5966;BME280;3009;43.224;27.976;2023-03-26T10:24:58;99719.25;;;15.61;59.74
5966;BME280;3009;43.224;27.976;2023-03-26T10:27:38;99721.81;;;15.54;60.17
5966;BME280;3009;43.224;27.976;2023-03-26T10:30:32;99729.72;;;15.63;59.62
5966;BME280;3009;43.224;27.976;2023-03-26T10:33:13;99741.56;;;15.77;59.96
5966;BME280;3009;43.224;27.976;2023-03-26T10:35:52;99730.19;;;15.68;59.47
5966;BME280;3009;43.224;27.976;2023-03-26T10:38:30;99738.09;;;15.57;57.67
5966;BME280;3009;43.224;27.976;2023-03-26T10:41:07;99735.31;;;15.73;56.37
5966;BME280;3009;43.224;27.976;2023-03-26T10:47:10;99739.53;;;15.32;58.43
5966;BME280;3009;43.224;27.976;2023-03-26T10:50:00;99741.44;;;15.31;58.26
5966;BME280;3009;43.224;27.976;2023-03-26T10:52:33;99738.75;;;15.12;59.00
5966;BME280;3009;43.224;27.976;2023-03-26T10:55:10;99740.53;;;14.88;60.16
5966;BME280;3009;43.224;27.976;2023-03-26T10:57:44;99745.09;;;15.03;59.79
5966;BME280;3009;43.224;27.976;2023-03-26T11:00:18;99731.91;;;14.98;59.55
5966;BME280;3009;43.224;27.976;2023-03-26T11:03:08;99732.81;;;15.06;59.91
5966;BME280;3009;43.224;27.976;2023-03-26T11:05:49;99742.72;;;15.18;59.05
5966;BME280;3009;43.224;27.976;2023-03-26T11:08:25;99738.38;;;15.13;58.04
5966;BME280;3009;43.224;27.976;2023-03-26T11:11:05;99734.78;;;15.25;56.96
5966;BME280;3009;43.224;27.976;2023-03-26T11:13:56;99738.22;;;15.65;57.39
5966;BME280;3009;43.224;27.976;2023-03-26T11:16:37;99738.19;;;15.61;55.98
5966;BME280;3009;43.224;27.976;2023-03-26T11:19:18;99748.03;;;15.92;55.63
5966;BME280;3009;43.224;27.976;2023-03-26T11:21:55;99737.09;;;15.85;56.55
5966;BME280;3009;43.224;27.976;2023-03-26T11:25:00;99746.00;;;16.09;57.02
5966;BME280;3009;43.224;27.976;2023-03-26T11:27:43;99742.91;;;16.10;54.57
5966;BME280;3009;43.224;27.976;2023-03-26T11:30:27;99744.53;;;16.15;54.86
5966;BME280;3009;43.224;27.976;2023-03-26T11:32:59;99744.84;;;16.33;56.19
5966;BME280;3009;43.224;27.976;2023-03-26T11:35:35;99733.09;;;16.48;54.85
5966;BME280;3009;43.224;27.976;2023-03-26T11:38:13;99734.03;;;15.87;53.11
5966;BME280;3009;43.224;27.976;2023-03-26T11:40:48;99730.66;;;15.31;54.72
5966;BME280;3009;43.224;27.976;2023-03-26T11:43:20;99724.94;;;15.17;56.20
5966;BME280;3009;43.224;27.976;2023-03-26T11:45:53;99730.66;;;15.31;55.83
5966;BME280;3009;43.224;27.976;2023-03-26T11:48:29;99730.44;;;15.40;55.97
5966;BME280;3009;43.224;27.976;2023-03-26T11:51:06;99730.63;;;15.70;55.68
5966;BME280;3009;43.224;27.976;2023-03-26T11:53:36;99731.03;;;15.72;54.10
5966;BME280;3009;43.224;27.976;2023-03-26T11:56:11;99736.97;;;15.78;54.38
5966;BME280;3009;43.224;27.976;2023-03-26T11:58:50;99730.25;;;16.15;54.18
5966;BME280;3009;43.224;27.976;2023-03-26T12:01:24;99738.19;;;16.04;52.60
5966;BME280;3009;43.224;27.976;2023-03-26T12:04:01;99735.59;;;15.88;52.62
5966;BME280;3009;43.224;27.976;2023-03-26T12:06:31;99736.25;;;15.81;52.13
5966;BME280;3009;43.224;27.976;2023-03-26T12:09:00;99731.56;;;15.58;50.84
5966;BME280;3009;43.224;27.976;2023-03-26T12:11:30;99733.78;;;15.76;50.99
5966;BME280;3009;43.224;27.976;2023-03-26T12:14:03;99729.19;;;15.76;51.30
5966;BME280;3009;43.224;27.976;2023-03-26T12:16:33;99731.75;;;15.89;51.43
5966;BME280;3009;43.224;27.976;2023-03-26T12:19:04;99727.59;;;15.95;50.40
5966;BME280;3009;43.224;27.976;2023-03-26T12:21:44;99725.00;;;15.79;50.12
5966;BME280;3009;43.224;27.976;2023-03-26T12:24:34;99714.69;;;15.65;50.81
5966;BME280;3009;43.224;27.976;2023-03-26T12:27:20;99727.91;;;15.70;49.61
5966;BME280;3009;43.224;27.976;2023-03-26T12:29:52;99729.00;;;15.66;51.65
5966;BME280;3009;43.224;27.976;2023-03-26T12:32:31;99727.41;;;15.84;50.68
5966;BME280;3009;43.224;27.976;2023-03-26T12:35:14;99730.75;;;15.77;50.69
5966;BME280;3009;43.224;27.976;2023-03-26T12:37:47;99719.81;;;15.70;49.87
5966;BME280;3009;43.224;27.976;2023-03-26T12:40:30;99718.47;;;15.60;49.80
5966;BME280;3009;43.224;27.976;2023-03-26T12:43:03;99721.44;;;15.75;48.83
5966;BME280;3009;43.224;27.976;2023-03-26T12:45:54;99712.69;;;15.62;49.36
5966;BME280;3009;43.224;27.976;2023-03-26T12:48:44;99713.00;;;15.57;49.39
5966;BME280;3009;43.224;27.976;2023-03-26T12:51:18;99709.44;;;15.53;48.59
5966;BME280;3009;43.224;27.976;2023-03-26T12:53:57;99709.78;;;15.71;48.06
5966;BME280;3009;43.224;27.976;2023-03-26T12:56:35;99702.41;;;15.91;47.60
5966;BME280;3009;43.224;27.976;2023-03-26T12:59:19;99698.63;;;15.95;47.91
5966;BME280;3009;43.224;27.976;2023-03-26T13:01:55;99689.69;;;15.91;46.75
5966;BME280;3009;43.224;27.976;2023-03-26T13:04:48;99696.91;;;15.84;46.85
5966;BME280;3009;43.224;27.976;2023-03-26T13:07:43;99696.13;;;15.83;47.59
5966;BME280;3009;43.224;27.976;2023-03-26T13:10:34;99691.22;;;15.69;46.97
5966;BME280;3009;43.224;27.976;2023-03-26T13:13:31;99687.78;;;15.72;47.36
5966;BME280;3009;43.224;27.976;2023-03-26T13:16:24;99678.00;;;15.84;48.06
5966;BME280;3009;43.224;27.976;2023-03-26T13:18:56;99679.16;;;15.63;49.17
5966;BME280;3009;43.224;27.976;2023-03-26T13:21:32;99686.81;;;15.81;48.90
5966;BME280;3009;43.224;27.976;2023-03-26T13:24:09;99682.75;;;15.71;48.51
5966;BME280;3009;43.224;27.976;2023-03-26T13:26:53;99683.53;;;15.71;48.66
5966;BME280;3009;43.224;27.976;2023-03-26T13:29:31;99674.03;;;15.58;48.97
5966;BME280;3009;43.224;27.976;2023-03-26T13:32:08;99679.88;;;15.40;49.33
5966;BME280;3009;43.224;27.976;2023-03-26T13:34:52;99689.63;;;15.45;49.95
5966;BME280;3009;43.224;27.976;2023-03-26T13:37:26;99689.41;;;15.54;49.04
5966;BME280;3009;43.224;27.976;2023-03-26T13:40:02;99690.19;;;15.54;48.45
5966;BME280;3009;43.224;27.976;2023-03-26T13:42:45;99694.00;;;15.53;49.62
5966;BME280;3009;43.224;27.976;2023-03-26T13:45:30;99693.53;;;15.48;49.19
5966;BME280;3009;43.224;27.976;2023-03-26T13:48:02;99696.88;;;15.41;49.26
5966;BME280;3009;43.224;27.976;2023-03-26T13:50:34;99688.66;;;15.14;55.01
5966;BME280;3009;43.224;27.976;2023-03-26T13:53:09;99694.16;;;14.82;63.85
5966;BME280;3009;43.224;27.976;2023-03-26T13:55:43;99690.72;;;14.50;68.77
5966;BME280;3009;43.224;27.976;2023-03-26T13:58:19;99686.91;;;14.35;69.98
5966;BME280;3009;43.224;27.976;2023-03-26T14:00:53;99676.84;;;14.32;70.76
5966;BME280;3009;43.224;27.976;2023-03-26T14:03:30;99674.16;;;13.84;71.30
5966;BME280;3009;43.224;27.976;2023-03-26T14:06:08;99673.44;;;13.87;72.21
5966;BME280;3009;43.224;27.976;2023-03-26T14:08:42;99672.41;;;13.76;73.17